This is the latest recevied weather packets stored in our database for station/object W4CKA. If no packets are shown the sender has not sent any weather packets the latest 10 day(s).
| Time | Temp. | Humidity | Pressure | Rain* | Wind** | Luminosity | Snow |
|---|---|---|---|---|---|---|---|
| 1787844891 | 27.78° C | 79% | 1059.1 hPa | 0 mm | - | 612 W/m² | - |
| 1787844285 | 27.78° C | 82% | 1059 hPa | 0 mm | - | 587 W/m² | - |
| 1787843685 | 26.67° C | 83% | 1058.9 hPa | 0 mm | - | 561 W/m² | - |
| 1787843083 | 26.11° C | 84% | 1059.2 hPa | 0 mm | - | 202 W/m² | - |
| 1787842483 | 25.56° C | 84% | 1058.9 hPa | 0 mm | - | 215 W/m² | - |
| 1787841883 | 25.56° C | 85% | 1059 hPa | 0 mm | - | 538 W/m² | - |
| 1787841278 | 25.56° C | 86% | 1058.9 hPa | 0 mm | - | 314 W/m² | - |
| 1787840674 | 25° C | 88% | 1059 hPa | 0 mm | - | 409 W/m² | - |
| 1787840071 | 25.56° C | 86% | 1059 hPa | 0 mm | - | 246 W/m² | - |
| 1787839466 | 26.11° C | 83% | 1058.9 hPa | 0 mm | - | 246 W/m² | - |
| 1787838865 | 25.56° C | 86% | 1058.8 hPa | 0 mm | - | 295 W/m² | - |
| 1787838264 | 23.89° C | 89% | 1058.7 hPa | 0 mm | - | 177 W/m² | - |
| 1787837662 | 23.89° C | 89% | 1058.7 hPa | 0 mm | - | 182 W/m² | - |
| 1787837059 | 23.33° C | 90% | 1058.8 hPa | 0 mm | - | 144 W/m² | - |
| 1787836458 | 22.22° C | 93% | 1058.8 hPa | 0 mm | - | 168 W/m² | - |
| 1787835855 | 21.67° C | 95% | 1058.8 hPa | 0 mm | - | 127 W/m² | - |
| 1787835256 | 21.11° C | 97% | 1058.9 hPa | 0 mm | - | 139 W/m² | - |
| 1787834650 | 20.56° C | 99% | 1059.1 hPa | 0 mm | - | 100 W/m² | - |
| 1787834047 | 20° C | 99% | 1059 hPa | 0 mm | - | 78 W/m² | - |
| 1787833443 | 19.44° C | 99% | 1059.1 hPa | 0 mm | - | 72 W/m² | - |
| 1787832840 | 19.44° C | 99% | 1058.8 hPa | 0 mm | - | 53 W/m² | - |
| 1787832234 | 18.89° C | 99% | 1058.7 hPa | 0 mm | - | 50 W/m² | - |
| 1787831634 | 18.89° C | 99% | 1058.6 hPa | 0 mm | - | 38 W/m² | - |
| 1787831029 | 18.89° C | 99% | 1058.5 hPa | 0 mm | - | 24 W/m² | - |
| 1787830428 | 18.89° C | 99% | 1058.4 hPa | 0 mm | - | 20 W/m² | - |
* Rain latest hour (hover to see other rain measurements)
** Current wind speed in m/s (hover to see current wind gust speed)